Time;durP1;ratioP1;P1;durP2;ratioP2;P2;SDS_P1;SDS_P2;PMS_P1;PMS_P2;Temp;Humidity;BMP_temperature;BMP_pressure;BME280_temperature;BME280_humidity;BME280_pressure;Samples;Min_cycle;Max_cycle;Signal;HPM_P1;HPM_P2
2021/08/07 00:01:18;;;;;;;6.18;2.47;;;16.50;99.90;;;;;;5041769;28;20041;-53
2021/08/07 00:03:44;;;;;;;4.53;2.00;;;16.50;99.90;;;;;;5042629;28;20123;-56
2021/08/07 00:06:09;;;;;;;5.40;2.08;;;16.50;99.90;;;;;;5046312;28;20075;-58
2021/08/07 00:08:35;;;;;;;3.40;1.85;;;16.50;99.90;;;;;;5043988;28;20609;-52
2021/08/07 00:11:00;;;;;;;7.40;2.30;;;16.40;99.90;;;;;;5045093;28;20523;-54
2021/08/07 00:13:26;;;;;;;6.43;1.92;;;16.40;99.90;;;;;;5046198;28;20056;-56
2021/08/07 00:15:51;;;;;;;11.38;2.10;;;16.40;99.90;;;;;;5044682;28;20059;-53
2021/08/07 00:18:17;;;;;;;4.20;2.08;;;16.30;99.90;;;;;;5045685;28;20498;-52
2021/08/07 00:20:43;;;;;;;4.60;1.90;;;16.30;99.90;;;;;;5043904;28;20033;-54
2021/08/07 00:23:08;;;;;;;6.45;2.40;;;16.30;99.90;;;;;;5044948;28;20063;-59
2021/08/07 00:25:34;;;;;;;4.13;1.95;;;16.30;99.90;;;;;;5045972;28;20446;-55
2021/08/07 00:27:59;;;;;;;14.75;2.78;;;16.20;99.90;;;;;;5043085;28;20021;-55
2021/08/07 00:30:25;;;;;;;5.32;2.22;;;16.20;99.90;;;;;;5041776;28;20029;-58
2021/08/07 00:32:50;;;;;;;3.33;2.60;;;16.20;99.90;;;;;;5045004;28;20033;-55
2021/08/07 00:35:16;;;;;;;7.20;2.50;;;16.10;99.90;;;;;;5044066;28;20070;-54
2021/08/07 00:37:41;;;;;;;5.95;2.22;;;16.00;99.90;;;;;;5045526;28;20025;-56
2021/08/07 00:40:08;;;;;;;8.73;2.95;;;16.00;99.90;;;;;;5044636;28;20025;-54
2021/08/07 00:42:33;;;;;;;5.03;2.67;;;16.00;99.90;;;;;;5042862;28;20040;-58
2021/08/07 00:44:59;;;;;;;9.20;2.60;;;16.00;99.90;;;;;;5044377;28;20029;-56
2021/08/07 00:47:25;;;;;;;6.82;2.55;;;15.90;99.90;;;;;;5041698;28;20477;-57
2021/08/07 00:49:50;;;;;;;3.97;2.80;;;15.80;99.90;;;;;;5047711;28;20091;-56
2021/08/07 00:52:16;;;;;;;4.30;2.50;;;15.70;99.90;;;;;;5049017;28;20040;-58
2021/08/07 00:54:42;;;;;;;5.80;2.90;;;15.70;99.90;;;;;;5045800;28;20021;-57
2021/08/07 00:57:07;;;;;;;4.95;2.53;;;15.70;99.90;;;;;;5043460;28;20025;-57
2021/08/07 00:59:33;;;;;;;6.65;2.67;;;15.70;99.90;;;;;;5043916;28;20056;-59
2021/08/07 01:02:02;;;;;;;9.05;2.55;;;15.70;99.90;;;;;;5042832;28;20076;-54
2021/08/07 01:04:36;;;;;;;4.68;2.20;;;15.60;99.90;;;;;;5045778;28;20041;-57
2021/08/07 01:07:31;;;;;;;7.53;2.60;;;15.60;99.90;;;;;;5042987;28;20027;-57
2021/08/07 01:10:07;;;;;;;4.55;2.08;;;15.60;99.90;;;;;;5043583;28;20089;-53
2021/08/07 01:12:38;;;;;;;6.88;2.40;;;15.60;99.90;;;;;;5043952;28;20033;-55
2021/08/07 01:15:06;;;;;;;11.20;2.80;;;15.50;99.90;;;;;;5050294;28;20010;-53
2021/08/07 01:17:33;;;;;;;13.25;2.25;;;15.50;99.90;;;;;;5043751;28;20104;-52
2021/08/07 01:20:11;;;;;;;4.72;2.35;;;15.50;99.90;;;;;;5043098;28;20028;-53
2021/08/07 01:22:48;;;;;;;5.57;2.85;;;15.50;99.90;;;;;;5042455;28;20034;-53
2021/08/07 01:25:18;;;;;;;7.68;2.35;;;15.50;99.90;;;;;;5045502;28;20480;-52
2021/08/07 01:27:45;;;;;;;9.18;2.20;;;15.40;99.90;;;;;;5042955;28;20033;-58
2021/08/07 01:30:13;;;;;;;11.20;2.85;;;15.40;99.90;;;;;;5048243;28;20546;-51
2021/08/07 01:32:40;;;;;;;4.40;2.40;;;15.40;99.90;;;;;;5041567;28;20033;-52
2021/08/07 01:35:08;;;;;;;4.50;2.22;;;15.40;99.90;;;;;;5043237;28;20405;-53
2021/08/07 01:37:34;;;;;;;3.60;2.58;;;15.40;99.90;;;;;;5043449;28;20063;-52
2021/08/07 01:39:59;;;;;;;8.65;2.75;;;15.40;99.90;;;;;;5044059;28;20064;-55
2021/08/07 01:42:26;;;;;;;10.65;2.80;;;15.40;99.90;;;;;;5041981;28;20112;-54
2021/08/07 01:44:53;;;;;;;4.80;2.33;;;15.40;99.90;;;;;;5037417;28;20082;-60
2021/08/07 01:47:41;;;;;;;8.43;2.50;;;15.30;99.90;;;;;;5043994;28;20033;-55
2021/08/07 01:50:07;;;;;;;5.53;2.47;;;15.30;99.90;;;;;;5046187;28;20028;-53
2021/08/07 01:52:41;;;;;;;5.43;2.35;;;15.30;99.90;;;;;;5070423;22;20220;-62
2021/08/07 01:55:12;;;;;;;4.97;2.50;;;15.20;99.90;;;;;;5099951;27;20027;-61
2021/08/07 01:57:47;;;;;;;5.20;2.63;;;15.20;99.90;;;;;;5103939;27;20024;-60
2021/08/07 02:00:14;;;;;;;5.22;2.20;;;15.20;99.90;;;;;;5101532;27;20027;-59
2021/08/07 02:02:41;;;;;;;2.83;2.30;;;15.20;99.90;;;;;;5094770;27;20035;-59
2021/08/07 02:05:08;;;;;;;8.50;2.70;;;15.10;99.90;;;;;;5083624;28;20453;-61
2021/08/07 02:07:34;;;;;;;3.53;2.22;;;15.00;99.90;;;;;;5084401;28;20024;-61
2021/08/07 02:10:01;;;;;;;5.88;2.75;;;15.00;99.90;;;;;;5083252;28;20032;-61
2021/08/07 02:12:27;;;;;;;4.55;2.40;;;15.00;99.90;;;;;;5083091;28;20039;-60
2021/08/07 02:14:54;;;;;;;6.63;2.50;;;15.00;99.90;;;;;;5081060;28;20455;-61
2021/08/07 02:17:20;;;;;;;8.15;2.83;;;15.00;99.90;;;;;;5083061;28;20028;-61
2021/08/07 02:19:47;;;;;;;8.55;2.42;;;14.90;99.90;;;;;;5081043;28;20024;-61
2021/08/07 02:22:12;;;;;;;3.45;2.55;;;14.90;99.90;;;;;;5084507;28;20036;-59
2021/08/07 02:24:38;;;;;;;5.50;2.45;;;14.90;99.90;;;;;;5082123;28;20020;-59
2021/08/07 02:27:04;;;;;;;8.07;2.30;;;14.80;99.90;;;;;;5084026;28;20046;-60
2021/08/07 02:29:32;;;;;;;3.65;2.63;;;14.80;99.90;;;;;;5081123;28;20020;-60
2021/08/07 02:32:00;;;;;;;9.98;2.55;;;14.80;99.90;;;;;;5081484;28;20028;-61
2021/08/07 02:34:27;;;;;;;6.38;2.63;;;14.80;99.90;;;;;;5080626;28;20111;-61
2021/08/07 02:36:55;;;;;;;4.53;2.63;;;14.70;99.90;;;;;;5084624;28;20020;-61
2021/08/07 02:39:21;;;;;;;6.13;2.85;;;14.80;99.90;;;;;;5079288;28;20028;-60
2021/08/07 02:41:47;;;;;;;6.20;2.63;;;14.80;99.90;;;;;;5081857;28;20348;-60
2021/08/07 02:44:14;;;;;;;2.88;2.40;;;14.80;99.90;;;;;;5082906;28;20421;-60
2021/08/07 02:46:40;;;;;;;10.75;2.92;;;14.70;99.90;;;;;;5081732;28;20035;-60
2021/08/07 02:49:06;;;;;;;7.93;2.67;;;14.60;99.90;;;;;;5080848;28;20517;-58
2021/08/07 02:51:34;;;;;;;9.15;2.70;;;14.70;99.90;;;;;;5082000;28;20024;-59
2021/08/07 02:54:00;;;;;;;7.60;2.45;;;14.70;99.90;;;;;;5082349;28;20433;-60
2021/08/07 02:56:26;;;;;;;5.65;3.63;;;14.70;99.90;;;;;;5083034;28;20039;-59
2021/08/07 02:58:52;;;;;;;6.07;2.22;;;14.70;99.90;;;;;;5078420;28;20024;-60
2021/08/07 03:01:17;;;;;;;9.85;3.25;;;14.70;99.90;;;;;;5082000;28;20031;-60
2021/08/07 03:03:43;;;;;;;4.40;2.78;;;14.60;99.90;;;;;;5078968;28;20036;-60
2021/08/07 03:06:08;;;;;;;8.13;2.70;;;14.60;99.90;;;;;;5082456;28;20028;-60
2021/08/07 03:08:34;;;;;;;7.57;2.30;;;14.60;99.90;;;;;;5082708;28;20036;-60
2021/08/07 03:10:59;;;;;;;6.90;2.85;;;14.60;99.90;;;;;;5087954;28;20821;-60
2021/08/07 03:13:25;;;;;;;14.50;3.08;;;14.60;99.90;;;;;;5083012;28;20024;-61
2021/08/07 03:15:51;;;;;;;9.10;3.33;;;14.60;99.90;;;;;;5081290;28;20040;-60
2021/08/07 03:18:16;;;;;;;2.80;2.30;;;14.60;99.90;;;;;;5082657;28;20055;-61
2021/08/07 03:20:42;;;;;;;4.28;3.40;;;14.60;99.90;;;;;;5082950;28;20020;-59
2021/08/07 03:23:08;;;;;;;10.55;3.28;;;14.60;99.90;;;;;;5077561;28;20024;-60
2021/08/07 03:25:35;;;;;;;10.60;2.50;;;14.60;99.90;;;;;;5082728;28;20451;-60
2021/08/07 03:28:02;;;;;;;5.63;3.10;;;14.60;99.90;;;;;;5081315;28;20036;-61
2021/08/07 03:30:28;;;;;;;4.78;2.63;;;14.70;99.90;;;;;;5082210;28;20028;-58
2021/08/07 03:32:54;;;;;;;9.32;2.67;;;14.70;99.90;;;;;;5082254;28;20036;-61
2021/08/07 03:35:20;;;;;;;7.32;3.08;;;14.70;99.90;;;;;;5082639;28;20031;-61
2021/08/07 03:37:46;;;;;;;4.78;3.03;;;14.80;99.90;;;;;;5081734;28;20058;-60
2021/08/07 03:40:13;;;;;;;9.38;2.53;;;14.80;99.90;;;;;;5079336;28;20589;-60
2021/08/07 03:42:40;;;;;;;4.43;3.03;;;14.80;99.90;;;;;;5080150;28;20028;-61
2021/08/07 03:45:07;;;;;;;2.75;2.30;;;14.80;99.90;;;;;;5081010;28;20028;-61
2021/08/07 03:47:46;;;;;;;5.13;2.38;;;14.90;99.90;;;;;;5082130;28;20036;-60
2021/08/07 03:50:12;;;;;;;5.43;2.28;;;14.90;99.90;;;;;;5081176;28;20030;-60
2021/08/07 03:52:37;;;;;;;4.53;2.10;;;15.00;99.90;;;;;;5080484;28;20048;-61
2021/08/07 03:55:03;;;;;;;3.45;2.10;;;15.00;99.90;;;;;;5080898;28;20031;-61
2021/08/07 03:57:29;;;;;;;7.32;3.45;;;15.00;99.90;;;;;;5082573;28;20054;-60
2021/08/07 03:59:54;;;;;;;10.30;2.42;;;15.00;99.90;;;;;;5079806;28;20028;-61
2021/08/07 04:02:20;;;;;;;11.32;2.40;;;15.10;99.90;;;;;;5081671;28;20034;-60
2021/08/07 04:04:45;;;;;;;9.23;2.22;;;15.10;99.90;;;;;;5083724;28;20028;-61
2021/08/07 04:07:11;;;;;;;7.25;2.35;;;15.20;99.90;;;;;;5082995;28;20028;-60
2021/08/07 04:09:36;;;;;;;3.05;1.95;;;15.20;99.90;;;;;;5086295;28;20036;-60
2021/08/07 04:12:02;;;;;;;5.72;2.33;;;15.20;99.90;;;;;;5082014;28;20051;-60
2021/08/07 04:14:27;;;;;;;5.03;1.80;;;15.20;99.90;;;;;;5079408;28;20020;-60
2021/08/07 04:16:53;;;;;;;8.82;3.05;;;15.30;99.90;;;;;;5079794;28;20020;-60
2021/08/07 04:19:19;;;;;;;8.88;2.15;;;15.30;99.90;;;;;;5081330;28;20028;-60
2021/08/07 04:21:44;;;;;;;5.03;2.00;;;15.30;99.90;;;;;;5081581;28;20024;-60
2021/08/07 04:24:10;;;;;;;2.80;1.85;;;15.40;99.90;;;;;;5081822;28;20411;-60
2021/08/07 04:26:36;;;;;;;5.00;2.05;;;15.40;99.90;;;;;;5080801;28;20103;-60
2021/08/07 04:29:01;;;;;;;7.88;2.05;;;15.40;99.90;;;;;;5079989;28;20081;-60
2021/08/07 04:31:27;;;;;;;6.07;2.10;;;15.40;99.90;;;;;;5080728;28;20442;-61
2021/08/07 04:33:52;;;;;;;5.40;1.85;;;15.50;99.90;;;;;;5080721;28;20099;-60
2021/08/07 04:36:18;;;;;;;12.55;2.45;;;15.50;99.90;;;;;;5080563;28;20020;-60
2021/08/07 04:38:43;;;;;;;3.47;1.77;;;15.50;99.90;;;;;;5079717;28;20032;-61
2021/08/07 04:41:09;;;;;;;5.85;1.90;;;15.50;99.90;;;;;;5079383;28;20032;-61
2021/08/07 04:43:34;;;;;;;7.03;2.20;;;15.50;99.90;;;;;;5079789;28;20031;-60
2021/08/07 04:46:00;;;;;;;6.90;1.83;;;15.60;99.90;;;;;;5080003;28;20032;-60
2021/08/07 04:48:26;;;;;;;3.05;1.63;;;15.60;99.90;;;;;;5081419;28;20032;-61
2021/08/07 04:50:51;;;;;;;6.00;2.13;;;15.60;99.90;;;;;;5077676;28;20042;-61
2021/08/07 04:53:17;;;;;;;2.53;1.90;;;15.60;99.90;;;;;;5079098;28;20028;-61
2021/08/07 04:55:43;;;;;;;7.38;2.00;;;15.70;99.90;;;;;;5083629;28;20056;-60
2021/08/07 04:58:08;;;;;;;6.13;1.73;;;15.70;99.90;;;;;;5085929;28;20032;-61
2021/08/07 05:00:34;;;;;;;5.35;1.90;;;15.70;99.90;;;;;;5082687;28;20081;-61
2021/08/07 05:02:59;;;;;;;6.82;2.38;;;15.70;99.90;;;;;;5084669;28;20024;-61
2021/08/07 05:05:25;;;;;;;5.88;1.98;;;15.80;99.90;;;;;;5084895;28;20547;-60
2021/08/07 05:07:50;;;;;;;4.97;1.80;;;15.80;99.90;;;;;;5085063;28;20445;-61
2021/08/07 05:10:17;;;;;;;4.15;2.10;;;15.80;99.90;;;;;;5085521;28;20032;-60
2021/08/07 05:12:42;;;;;;;4.45;1.80;;;15.90;99.90;;;;;;5083418;28;20020;-60
2021/08/07 05:15:09;;;;;;;6.13;2.25;;;15.90;99.90;;;;;;5081949;28;20042;-61
2021/08/07 05:17:34;;;;;;;3.45;1.80;;;16.00;99.90;;;;;;5086757;28;20073;-60
2021/08/07 05:20:00;;;;;;;5.60;2.13;;;16.00;99.90;;;;;;5082870;28;20035;-61
2021/08/07 05:22:26;;;;;;;5.47;2.03;;;16.00;99.90;;;;;;5082172;28;20032;-61
2021/08/07 05:24:52;;;;;;;6.43;1.65;;;16.10;99.90;;;;;;5084336;28;20031;-61
2021/08/07 05:27:18;;;;;;;6.15;2.15;;;16.10;99.90;;;;;;5086011;28;20031;-59
2021/08/07 05:29:43;;;;;;;5.05;1.90;;;16.20;99.90;;;;;;5082797;28;20042;-60
2021/08/07 05:32:09;;;;;;;5.35;1.73;;;16.20;99.90;;;;;;5085783;28;20024;-61
2021/08/07 05:34:35;;;;;;;5.22;2.22;;;16.20;99.90;;;;;;5081851;28;20063;-61
2021/08/07 05:37:01;;;;;;;6.88;2.03;;;16.20;99.90;;;;;;5085389;28;20016;-60
2021/08/07 05:39:27;;;;;;;6.88;2.05;;;16.30;99.90;;;;;;5087399;28;20059;-60
2021/08/07 05:41:52;;;;;;;4.38;1.63;;;16.30;99.90;;;;;;5082620;28;20098;-60
2021/08/07 05:44:18;;;;;;;8.32;2.08;;;16.40;99.90;;;;;;5082109;28;20031;-61
2021/08/07 05:46:43;;;;;;;3.05;2.00;;;16.50;99.90;;;;;;5082941;28;20038;-61
2021/08/07 05:49:09;;;;;;;9.85;2.78;;;16.50;99.90;;;;;;5084825;28;20045;-61
2021/08/07 05:51:35;;;;;;;8.35;1.95;;;16.50;99.90;;;;;;5080505;28;20028;-61
2021/08/07 05:54:04;;;;;;;7.13;2.10;;;16.60;99.90;;;;;;5085175;28;20508;-61
2021/08/07 05:56:30;;;;;;;5.28;1.90;;;16.70;99.90;;;;;;5087974;28;20103;-61
2021/08/07 05:58:56;;;;;;;10.27;1.90;;;16.70;99.90;;;;;;5088157;28;20111;-61
2021/08/07 06:01:21;;;;;;;10.98;2.25;;;16.80;99.90;;;;;;5084758;28;20510;-61
2021/08/07 06:03:47;;;;;;;5.07;1.52;;;16.80;99.90;;;;;;5083901;28;20103;-61
2021/08/07 06:06:12;;;;;;;6.47;2.13;;;16.80;99.90;;;;;;5085113;28;20513;-61
2021/08/07 06:08:38;;;;;;;7.82;1.98;;;16.90;99.90;;;;;;5085198;28;20093;-61
2021/08/07 06:11:03;;;;;;;11.85;2.50;;;16.80;99.90;;;;;;5083774;28;20028;-61
2021/08/07 06:13:29;;;;;;;6.85;2.28;;;16.80;99.90;;;;;;5086922;28;20061;-60
2021/08/07 06:15:55;;;;;;;5.07;1.90;;;16.90;99.90;;;;;;5084586;28;20059;-61
2021/08/07 06:18:21;;;;;;;7.30;2.20;;;16.90;99.90;;;;;;5089335;28;20107;-61
2021/08/07 06:20:47;;;;;;;8.32;2.83;;;16.90;99.90;;;;;;5089701;28;20515;-61
2021/08/07 06:23:13;;;;;;;11.15;2.55;;;17.00;99.90;;;;;;5088677;28;20034;-61
2021/08/07 06:25:38;;;;;;;4.25;1.83;;;16.90;99.90;;;;;;5085035;28;20059;-61
2021/08/07 06:28:05;;;;;;;8.27;2.17;;;16.90;99.90;;;;;;5089329;28;20027;-61
2021/08/07 06:30:30;;;;;;;4.18;1.88;;;17.00;99.90;;;;;;5087121;28;20051;-60
2021/08/07 06:32:56;;;;;;;6.93;2.42;;;17.00;99.90;;;;;;5088746;28;20549;-61
2021/08/07 06:35:22;;;;;;;6.35;2.22;;;17.10;99.90;;;;;;5086557;28;20051;-62
2021/08/07 06:37:48;;;;;;;4.70;1.90;;;17.10;99.90;;;;;;5087820;28;20032;-61
2021/08/07 06:40:15;;;;;;;8.30;2.58;;;17.10;99.90;;;;;;5089904;28;20028;-60
2021/08/07 06:42:41;;;;;;;5.10;1.83;;;17.10;99.90;;;;;;5082509;28;20552;-61
2021/08/07 06:45:08;;;;;;;5.32;2.00;;;17.10;99.90;;;;;;5089500;28;20114;-60
2021/08/07 06:47:33;;;;;;;19.02;2.90;;;17.20;99.90;;;;;;5087672;28;20028;-61
2021/08/07 06:49:59;;;;;;;4.72;2.10;;;17.30;99.90;;;;;;5089009;28;21771;-60
2021/08/07 06:52:24;;;;;;;9.75;2.08;;;17.40;99.90;;;;;;5089352;28;20028;-61
2021/08/07 06:54:50;;;;;;;5.70;1.90;;;17.50;99.90;;;;;;5081058;28;20032;-60
2021/08/07 06:57:17;;;;;;;5.60;2.35;;;17.50;99.90;;;;;;5086001;28;20115;-57
2021/08/07 06:59:42;;;;;;;6.50;2.30;;;17.60;99.90;;;;;;5084824;28;20432;-59
2021/08/07 07:02:08;;;;;;;9.90;1.92;;;17.70;99.90;;;;;;5086138;28;20106;-61
2021/08/07 07:04:34;;;;;;;3.33;1.80;;;17.70;99.90;;;;;;5085566;28;20056;-61
2021/08/07 07:07:00;;;;;;;5.63;1.50;;;17.80;99.90;;;;;;5082033;28;20161;-60
2021/08/07 07:09:26;;;;;;;4.00;1.70;;;17.90;99.90;;;;;;5087419;28;20043;-60
2021/08/07 07:11:52;;;;;;;5.80;2.05;;;17.90;99.90;;;;;;5086610;28;20047;-61
2021/08/07 07:14:17;;;;;;;8.13;1.85;;;17.90;99.90;;;;;;5084067;28;20085;-60
2021/08/07 07:16:43;;;;;;;4.88;1.52;;;18.00;99.90;;;;;;5086835;28;20528;-61
2021/08/07 07:19:08;;;;;;;6.40;2.05;;;18.00;99.90;;;;;;5089076;28;20028;-61
2021/08/07 07:21:34;;;;;;;11.40;2.40;;;18.10;99.90;;;;;;5088588;28;20085;-61
2021/08/07 07:24:00;;;;;;;4.60;1.77;;;18.20;99.90;;;;;;5089498;28;20411;-61
2021/08/07 07:26:27;;;;;;;7.03;2.20;;;18.30;99.90;;;;;;5081125;28;20454;-61
2021/08/07 07:28:57;;;;;;;10.20;2.22;;;18.50;99.90;;;;;;5086994;28;20028;-60
2021/08/07 07:31:23;;;;;;;5.05;1.98;;;18.70;99.90;;;;;;5085779;28;20158;-60
2021/08/07 07:33:49;;;;;;;4.72;2.08;;;18.80;99.90;;;;;;5083977;28;20032;-60
2021/08/07 07:36:15;;;;;;;10.35;1.98;;;18.80;99.90;;;;;;5085366;28;20023;-60
2021/08/07 07:38:40;;;;;;;6.15;1.70;;;18.90;99.90;;;;;;5088786;28;20483;-61
2021/08/07 07:41:06;;;;;;;7.63;1.85;;;18.90;99.90;;;;;;5085338;28;20154;-61
2021/08/07 07:43:32;;;;;;;6.13;1.92;;;18.90;99.90;;;;;;5086546;28;20380;-56
2021/08/07 07:45:58;;;;;;;8.88;1.70;;;19.00;99.90;;;;;;5087250;28;20487;-60
2021/08/07 07:48:24;;;;;;;9.30;2.33;;;19.20;99.90;;;;;;5078138;28;20119;-59
2021/08/07 07:50:51;;;;;;;6.35;2.30;;;19.30;99.90;;;;;;5089798;28;20099;-58
2021/08/07 07:53:17;;;;;;;6.97;2.10;;;19.40;99.90;;;;;;5100789;22;20032;-62
2021/08/07 07:55:42;;;;;;;8.77;2.15;;;19.40;99.90;;;;;;5043661;28;20021;-62
2021/08/07 07:58:08;;;;;;;4.78;1.63;;;19.50;99.90;;;;;;5042671;28;20378;-64
2021/08/07 08:00:34;;;;;;;4.97;1.58;;;19.60;99.90;;;;;;5051479;28;20041;-63
2021/08/07 08:03:00;;;;;;;9.05;1.77;;;19.70;99.90;;;;;;5047965;28;20084;-65
2021/08/07 08:05:26;;;;;;;8.32;2.05;;;19.80;99.90;;;;;;5045049;28;20061;-64
2021/08/07 08:07:51;;;;;;;6.63;1.60;;;19.90;99.90;;;;;;5042649;28;20110;-65
2021/08/07 08:10:18;;;;;;;4.30;1.45;;;19.90;99.90;;;;;;5035839;28;20024;-62
2021/08/07 08:12:44;;;;;;;5.95;1.42;;;19.90;99.90;;;;;;5038217;28;20445;-64
2021/08/07 08:15:11;;;;;;;4.82;1.60;;;19.80;99.90;;;;;;5038536;28;20388;-64
2021/08/07 08:17:37;;;;;;;4.70;1.17;;;19.80;99.90;;;;;;5039869;28;20059;-64
2021/08/07 08:20:07;;;;;;;7.07;1.65;;;19.80;99.90;;;;;;5037670;28;20025;-63
2021/08/07 08:22:33;;;;;;;8.13;1.80;;;19.90;99.90;;;;;;5036440;28;20327;-64
2021/08/07 08:24:59;;;;;;;5.75;1.50;;;20.00;99.90;;;;;;5040992;28;20039;-65
2021/08/07 08:27:25;;;;;;;13.18;1.70;;;20.10;99.90;;;;;;5044493;28;20034;-64
2021/08/07 08:29:51;;;;;;;12.82;2.05;;;20.30;99.90;;;;;;5045462;28;20420;-65
2021/08/07 08:32:17;;;;;;;11.88;1.58;;;20.40;99.90;;;;;;5049692;28;20030;-62
2021/08/07 08:34:42;;;;;;;10.10;2.13;;;20.50;99.90;;;;;;5046227;28;20044;-62
2021/08/07 08:37:08;;;;;;;8.50;1.80;;;20.50;99.90;;;;;;5050988;28;20055;-62
2021/08/07 08:39:34;;;;;;;7.15;1.63;;;20.60;99.90;;;;;;5045132;28;20021;-62
2021/08/07 08:42:00;;;;;;;7.35;1.55;;;20.60;99.90;;;;;;5049721;28;20332;-62
2021/08/07 08:44:26;;;;;;;6.40;1.98;;;20.70;99.90;;;;;;5042040;28;20194;-62
2021/08/07 08:46:53;;;;;;;11.77;1.70;;;20.60;99.90;;;;;;5050091;28;20132;-63
2021/08/07 08:49:20;;;;;;;8.25;2.40;;;20.60;99.90;;;;;;5051222;28;20059;-63
2021/08/07 08:51:48;;;;;;;5.95;1.67;;;20.70;99.90;;;;;;5050886;28;20090;-63
2021/08/07 08:54:16;;;;;;;8.65;1.77;;;20.80;99.90;;;;;;5042277;28;20476;-62
2021/08/07 08:56:45;;;;;;;5.00;1.30;;;20.90;99.90;;;;;;5045917;28;20029;-64
2021/08/07 08:59:10;;;;;;;6.22;1.85;;;20.90;99.90;;;;;;5045019;28;20536;-64
2021/08/07 09:01:37;;;;;;;4.10;1.38;;;20.90;99.90;;;;;;5049836;28;20063;-64
2021/08/07 09:04:04;;;;;;;12.48;1.88;;;20.90;99.90;;;;;;5046642;28;20035;-64
2021/08/07 09:06:34;;;;;;;5.15;1.30;;;21.00;99.90;;;;;;5048446;28;20033;-64
2021/08/07 09:09:11;;;;;;;8.65;1.83;;;21.00;99.90;;;;;;5041995;28;20022;-64
2021/08/07 09:11:39;;;;;;;5.85;1.35;;;21.00;99.90;;;;;;5048714;28;20446;-65
2021/08/07 09:14:18;;;;;;;7.28;1.60;;;21.10;99.90;;;;;;5047900;28;20475;-65
2021/08/07 09:17:01;;;;;;;5.30;1.48;;;21.10;99.90;;;;;;5046566;28;20039;-64
2021/08/07 09:19:44;;;;;;;4.90;1.33;;;21.20;99.90;;;;;;5048782;28;20384;-64
2021/08/07 09:22:14;;;;;;;12.63;2.78;;;21.20;99.90;;;;;;5044089;28;20029;-64
2021/08/07 09:25:03;;;;;;;8.00;2.42;;;21.10;99.90;;;;;;5045155;28;20064;-65
2021/08/07 09:27:42;;;;;;;5.25;1.30;;;21.10;99.90;;;;;;5048954;28;20468;-63
2021/08/07 09:30:17;;;;;;;16.08;2.25;;;21.20;99.90;;;;;;5042649;28;20033;-64
2021/08/07 09:33:12;;;;;;;6.82;1.55;;;21.30;99.90;;;;;;5047416;28;20535;-60
2021/08/07 09:35:43;;;;;;;9.00;1.80;;;21.30;99.90;;;;;;5045112;28;20029;-65
2021/08/07 09:38:12;;;;;;;2.72;1.00;;;21.40;99.90;;;;;;5040674;28;20037;-64
2021/08/07 09:40:53;;;;;;;6.25;1.40;;;21.30;99.90;;;;;;5046255;28;20035;-63
2021/08/07 09:43:26;;;;;;;5.43;1.23;;;21.40;99.90;;;;;;5044852;28;20029;-64
2021/08/07 09:46:02;;;;;;;4.78;1.63;;;21.30;99.90;;;;;;5045393;28;20037;-65
2021/08/07 09:48:36;;;;;;;7.72;1.33;;;21.40;99.90;;;;;;5047772;28;20039;-62
2021/08/07 09:51:16;;;;;;;6.57;1.30;;;21.40;99.90;;;;;;5055506;28;20030;-63
2021/08/07 09:53:42;;;;;;;9.90;1.30;;;21.50;99.90;;;;;;5047861;28;20028;-60
2021/08/07 09:56:08;;;;;;;3.33;1.23;;;21.70;99.90;;;;;;5051868;28;20439;-64
2021/08/07 09:58:34;;;;;;;5.35;1.42;;;21.70;99.90;;;;;;5043672;28;20405;-62
2021/08/07 10:01:01;;;;;;;3.72;1.40;;;21.60;99.90;;;;;;5050391;28;20035;-63
2021/08/07 10:03:30;;;;;;;8.38;1.58;;;21.40;99.90;;;;;;5048294;28;20080;-64
2021/08/07 10:05:56;;;;;;;5.30;1.42;;;21.20;99.90;;;;;;5042378;28;20021;-64
2021/08/07 10:08:22;;;;;;;4.70;1.55;;;21.10;99.90;;;;;;5049615;28;20025;-64
2021/08/07 10:10:50;;;;;;;3.80;1.27;;;21.20;99.90;;;;;;5048597;28;20213;-65
2021/08/07 10:13:17;;;;;;;7.32;2.83;;;21.30;99.90;;;;;;5042259;28;20021;-64
2021/08/07 10:15:44;;;;;;;10.95;2.35;;;21.40;99.90;;;;;;5039753;28;20035;-63
2021/08/07 10:18:11;;;;;;;4.53;1.40;;;21.40;99.90;;;;;;5047263;28;20052;-62
2021/08/07 10:20:41;;;;;;;7.50;1.50;;;21.40;99.90;;;;;;5044579;28;20056;-63
2021/08/07 10:23:07;;;;;;;7.32;1.98;;;21.80;99.90;;;;;;5051039;28;20507;-63
2021/08/07 10:25:34;;;;;;;7.45;1.33;;;21.90;99.90;;;;;;5038781;28;20037;-63
2021/08/07 10:28:02;;;;;;;7.38;1.40;;;22.00;99.90;;;;;;5048432;28;20036;-64
2021/08/07 10:30:30;;;;;;;5.78;1.17;;;21.80;99.90;;;;;;5049064;28;20428;-65
2021/08/07 10:32:56;;;;;;;5.53;3.28;;;21.80;99.90;;;;;;5047323;28;20033;-64
2021/08/07 10:35:25;;;;;;;6.45;1.70;;;21.50;99.90;;;;;;5045342;28;20032;-64
2021/08/07 10:37:50;;;;;;;5.45;1.65;;;21.40;99.90;;;;;;5051479;28;20112;-63
2021/08/07 10:40:16;;;;;;;4.40;1.50;;;21.30;99.90;;;;;;5050880;28;20076;-64
2021/08/07 10:42:45;;;;;;;6.45;1.15;;;21.20;99.90;;;;;;5042845;28;20216;-64
2021/08/07 10:45:11;;;;;;;4.40;1.30;;;21.10;99.90;;;;;;5047476;28;20035;-65
2021/08/07 10:47:42;;;;;;;8.48;1.52;;;21.20;99.90;;;;;;5045032;28;20040;-63
2021/08/07 10:50:27;;;;;;;4.72;1.52;;;21.10;99.90;;;;;;5043765;28;20446;-64
2021/08/07 10:52:58;;;;;;;4.85;1.60;;;21.20;99.90;;;;;;5047794;28;20028;-65
2021/08/07 10:55:42;;;;;;;9.45;1.95;;;21.10;99.90;;;;;;5042347;28;20519;-66
2021/08/07 10:58:37;;;;;;;5.40;1.60;;;20.90;99.90;;;;;;5042926;28;20029;-63
2021/08/07 11:01:21;;;;;;;;;;;20.50;99.90;;;;;;5043128;28;20542;-64
2021/08/07 11:04:01;;;;;;;6.70;1.35;;;20.10;99.90;;;;;;5049811;28;19916;-65
2021/08/07 11:06:42;;;;;;;3.65;1.35;;;19.60;99.90;;;;;;5037010;28;20021;-64
2021/08/07 11:09:29;;;;;;;4.60;1.10;;;19.30;99.90;;;;;;5040885;28;20029;-63
2021/08/07 11:12:21;;;;;;;6.82;1.73;;;19.50;99.90;;;;;;5033644;28;20548;-65
2021/08/07 11:14:49;;;;;;;7.25;1.65;;;19.50;99.90;;;;;;5037863;28;20041;-64
2021/08/07 11:17:14;;;;;;;9.55;2.17;;;19.80;99.90;;;;;;5042962;28;20067;-64
2021/08/07 11:19:43;;;;;;;5.10;1.38;;;19.70;99.90;;;;;;5041543;28;20033;-64
2021/08/07 11:22:08;;;;;;;3.97;1.48;;;20.00;99.90;;;;;;5046946;28;20023;-64
2021/08/07 11:24:43;;;;;;;6.88;1.90;;;20.20;99.90;;;;;;5047448;28;20022;-64
2021/08/07 11:27:10;;;;;;;5.53;1.40;;;20.50;99.90;;;;;;5047045;28;20555;-64
2021/08/07 11:30:14;;;;;;;6.75;1.60;;;20.70;99.90;;;;;;5043417;28;20030;-64
2021/08/07 11:32:40;;;;;;;5.15;1.27;;;20.80;99.90;;;;;;5045341;28;20039;-64
2021/08/07 11:35:05;;;;;;;5.47;1.33;;;21.00;99.90;;;;;;5051315;28;20037;-64
2021/08/07 11:37:31;;;;;;;9.23;1.15;;;20.90;99.90;;;;;;5051151;28;20028;-62
2021/08/07 11:40:11;;;;;;;2.42;0.85;;;21.00;99.90;;;;;;5048336;28;20029;-64
2021/08/07 11:42:43;;;;;;;3.85;1.10;;;21.00;99.90;;;;;;5049927;28;20029;-64
2021/08/07 11:45:10;;;;;;;5.68;1.38;;;21.10;99.90;;;;;;5045672;28;20047;-64
2021/08/07 11:47:51;;;;;;;3.08;0.88;;;21.30;99.90;;;;;;5049163;28;20024;-65
2021/08/07 11:50:17;;;;;;;4.70;0.98;;;21.50;99.90;;;;;;5038926;28;20033;-64
2021/08/07 11:52:43;;;;;;;3.88;1.00;;;21.70;99.90;;;;;;5048441;28;20033;-64
2021/08/07 11:55:08;;;;;;;3.85;0.70;;;21.90;99.90;;;;;;5042197;28;20044;-64
2021/08/07 11:57:34;;;;;;;2.22;0.77;;;22.40;99.90;;;;;;5047974;28;20029;-63
2021/08/07 12:00:20;;;;;;;3.15;0.80;;;22.50;99.90;;;;;;5044593;28;20104;-64
2021/08/07 12:03:01;;;;;;;2.28;0.80;;;22.80;99.90;;;;;;5043998;28;20504;-66
2021/08/07 12:05:27;;;;;;;2.05;0.88;;;23.40;99.90;;;;;;5046641;28;20086;-63
2021/08/07 12:08:09;;;;;;;4.05;0.77;;;23.70;99.90;;;;;;5053454;28;20028;-64
2021/08/07 12:10:44;;;;;;;1.63;0.90;;;23.70;99.90;;;;;;5047215;28;20024;-64
2021/08/07 12:13:10;;;;;;;4.00;0.77;;;23.90;99.90;;;;;;5052862;28;20037;-64
2021/08/07 12:15:35;;;;;;;3.63;0.70;;;24.00;99.90;;;;;;5045889;28;20031;-64
2021/08/07 12:18:01;;;;;;;3.97;0.70;;;24.30;99.90;;;;;;5044648;28;20052;-64
2021/08/07 12:20:27;;;;;;;1.38;0.80;;;24.50;99.90;;;;;;5052187;28;20029;-64
2021/08/07 12:22:54;;;;;;;2.22;0.60;;;24.70;99.90;;;;;;5053242;28;20033;-65
2021/08/07 12:25:20;;;;;;;3.70;1.10;;;24.50;99.90;;;;;;5049012;28;20040;-65
2021/08/07 12:28:07;;;;;;;2.38;0.60;;;24.70;99.90;;;;;;5052137;28;20075;-64
2021/08/07 12:30:51;;;;;;;2.75;0.90;;;25.00;99.90;;;;;;5045871;28;20025;-63
2021/08/07 12:33:22;;;;;;;1.80;0.93;;;25.00;99.90;;;;;;5046788;28;20492;-62
2021/08/07 12:35:48;;;;;;;5.43;0.80;;;25.10;99.90;;;;;;5048336;28;20049;-63
2021/08/07 12:38:16;;;;;;;2.38;0.80;;;24.90;99.90;;;;;;5047178;28;20068;-63
2021/08/07 12:40:44;;;;;;;1.20;0.65;;;24.20;99.90;;;;;;5050825;28;20055;-61
2021/08/07 12:43:10;;;;;;;2.47;0.85;;;24.10;99.90;;;;;;5051068;28;20041;-64
2021/08/07 12:45:36;;;;;;;5.13;0.90;;;24.50;99.90;;;;;;5046342;28;20132;-64
2021/08/07 12:48:01;;;;;;;2.72;0.90;;;24.40;99.90;;;;;;5046401;28;20025;-64
2021/08/07 12:50:27;;;;;;;3.78;0.90;;;24.10;99.90;;;;;;5050569;28;20029;-62